Bagdad, Kentucky
Current Conditions -  °F | °C
As of 11:02 AM on Saturday 25 Oct 2014 (Local Time) from KFFT Reporting Station
Overcast Overcast  
Wind Chill: 57°   Ceiling: 2900
Heat Index: 57°   Visibility: 10mi
Dew Point: 50°   Wind: 10mph
Humidity: 77%   Direction: 220°SW
Pressure: 30.03"   Gusts: NA
Location:  38.26°N, 85.06°W
Report Text: KFFT 251502Z AUTO 22009KT 10SM OVC029 14/10 A3003 RMK AO2 T01390100
Loading
Personal Weather Stations






























Interactive Weather Map
Tropical Storm Tracking
New forecast layout! Learn more

10-Day Weather Forecast

Advertisements
Track Severe Weather on mobile